AirNav   ProFlight Series 2 Aviation Headset
 
 274 users online  

25KY Western Baptist Hospital Heliport
Paducah, Kentucky, USA

GOING TO PADUCAH?


FAA INFORMATION EFFECTIVE 18 JUNE 2020

Location

FAA Identifier: 25KY
Lat/Long: 37-04-27.0000N 088-37-33.0000W
37-04.450000N 088-37.550000W
37.0741667,-88.6258333
(estimated)
Elevation: 379 ft. / 116 m (estimated)
Variation: 01E (1985)
Time zone: UTC -5 (UTC -6 during Standard Time)
Zip code: 42001

Heliport Operations

Heliport use: Private use. Permission required prior to landing
Activation date: 05/1975
Control tower: no
ARTCC: MEMPHIS CENTER
FSS: LOUISVILLE FLIGHT SERVICE STATION
Attendance: CONTINUOUS
Wind indicator: yes
Segmented circle: no
Lights: FOR PERIMETER LGTS CALL 270-575-2100.

Heliport Communications

WX ASOS at PAH (7 nm W): 118.375 (270-744-6719)
WX AWOS-3 at M30 (9 nm NW): 124.175 (618-524-7483)
WX AWOS-3 at M25 (18 nm S): 120.625 (270-247-2094)

Nearby radio navigation aids

VOR radial/distance  VOR name  Freq  Var
CNGr066/10.8CUNNINGHAM VOR/DME113.1003E

 
NDB name  Hdg/Dist  Freq  Var  ID
CAIRO088/28.639700ECIR -.-. .. .-.

Heliport Services

Runway Information

Helipad H1

Dimensions: 50 x 50 ft. / 15 x 15 m
Surface: mats
Runway edge lights: PERI
Latitude: 37-04.450000N
Longitude: 088-37.550000W
Elevation: 379.0 ft.
Traffic pattern: leftleft
Obstructions: 145 ft. bldg, lighted, 267 ft. from runway
TOWER 400 FROM HELI.

Heliport Ownership and Management from official FAA records

Ownership: Privately-owned
Owner: BAPTIST HEALTH PADUCAH
2501 KENTUCKY AVE
PADUCAH, KY 42003
Phone 270-575-2100
Manager: CHRIS ROTY
2501 KENTUCKY AVE
PADUCAH, KY 42003
Phone 270-575-2100
270-575-2156

Additional Remarks

CLSD TO ALL NON-MEDIVAC OPERATIONS.
FOR CD CTC MEMPHIS ARTCC AT 901-368-8453.

Instrument Procedures

There are no published instrument procedures at 25KY.

Some nearby airports with instrument procedures:

KPAH - Barkley Regional Airport (7 nm W)
M25 - Mayfield Graves County Airport (18 nm S)
KCEY - Kyle-Oakley Field Airport (27 nm SE)
KCIR - Cairo Regional Airport (28 nm W)
5M9 - Marion-Crittenden County Airport (29 nm NE)
 
Loc | Ops | Rwys | IFR | FBO | Links
Com | Nav | Svcs | Stats | Notes
Area around 25KY (Western Baptist Hospital Heliport)
 
Road maps at: MapQuest Bing Google
 
Aerial photo
No photo
 
Sectional chart

 
Airport distance calculator
Flying to Western Baptist Hospital Heliport? Find the distance to fly.

From to 25KY

Sunrise and sunset
Times for 14-Jul-2020
 Local
(UTC-5)
 Zulu
(UTC)
Morning civil twilight05:1710:17
Sunrise05:4710:47
Sunset20:1301:13
Evening civil twilight20:4301:43

Current date and time
Zulu (UTC)  14-Jul-2020 09:06:50
Local (UTC-5)  14-Jul-2020 04:06:50
 
METAR
KPAH 
7nm W 
140853Z AUTO 00000KT 10SM CLR 19/17 A2997 RMK AO2 SLP143 T01890172 55002
KM30 
9nm NW 
140855Z AUTO 00000KT 5SM BR CLR 17/17 A2999 RMK AO2 T01650165
KM25 
18nm S 
140855Z AUTO 11003KT 10SM CLR 20/18 A2999 RMK AO2 PWINO
TAF
KPAH 
7nm W 
140520Z 1406/1506 VRB03KT P6SM SKC
NOTAMs
Click for the latest NOTAMs
NOTAMs are issued by the DoD/FAA and will open in a separate window not controlled by AirNav.

 

 
 

Would you like to see your business listed on this page?

 If your business provides an interesting product or service to pilots, flight crews, aircraft, or users of the Western Baptist Hospital Heliport, you should consider listing it here.  To start the listing process, click on the button below
 
Add a business
 

Other Pages about Western Baptist Hospital Heliport

Update a link
 
Copyright © AirNav, LLC. All rights reserved. Privacy Policy  Contact